Dalton, Wisconsin
Current Conditions -  °F | °C
As of 12:56 PM on Monday 20 Oct 2014 (Local Time) from KY50 Reporting Station
Overcast Overcast  
Wind Chill: 55°   Ceiling: 100
Heat Index: 55°   Visibility: 10mi
Dew Point: 41°   Wind: 13mph
Humidity: 60%   Direction: 330°NNW
Pressure: 29.91"   Gusts: NA
Location:  43.66°N, 89.21°W
Report Text: KY50 201756Z AUTO 33011KT 10SM OVC001 13/05 A2991 RMK AO2 TSNO 51005 T01270050 10133 20072 SLP129
Loading
Personal Weather Stations






























Interactive Weather Map
Tropical Storm Tracking
New forecast layout! Learn more

10-Day Weather Forecast

Advertisements
Track Severe Weather on mobile